createdAt,value
2023-04-10T00:00:06.373Z,52.56
2023-04-10T00:02:33.903Z,52.25
2023-04-10T00:05:01.253Z,52.39
2023-04-10T00:07:28.025Z,52.32
2023-04-10T00:09:54.993Z,52.55
2023-04-10T00:12:21.897Z,52.66
2023-04-10T00:14:48.772Z,52.52
2023-04-10T00:17:15.579Z,52.61
2023-04-10T00:19:42.337Z,52.40
2023-04-10T00:22:09.101Z,52.46
2023-04-10T00:24:35.960Z,52.70
2023-04-10T00:27:02.731Z,52.77
2023-04-10T00:29:29.646Z,52.55
2023-04-10T00:31:56.477Z,52.58
2023-04-10T00:34:23.905Z,52.57
2023-04-10T00:36:51.033Z,52.60
2023-04-10T00:39:17.838Z,52.70
2023-04-10T00:41:44.677Z,52.91
2023-04-10T00:44:11.908Z,52.79
2023-04-10T00:46:39.897Z,52.71
2023-04-10T00:49:06.889Z,52.67
2023-04-10T00:51:33.992Z,52.56
2023-04-10T00:54:02.456Z,52.60
2023-04-10T00:56:32.206Z,52.79
2023-04-10T00:58:59.076Z,52.80
2023-04-10T01:01:26.034Z,53.25
2023-04-10T01:03:54.307Z,52.88
2023-04-10T01:06:59.113Z,53.18
2023-04-10T01:10:02.136Z,53.21
2023-04-10T01:12:41.928Z,53.08
2023-04-10T01:15:22.578Z,53.05
2023-04-10T01:18:24.488Z,53.38
2023-04-10T01:20:51.269Z,53.59
2023-04-10T01:23:55.077Z,53.31
2023-04-10T01:27:01.541Z,53.36
2023-04-10T01:29:30.823Z,53.58
2023-04-10T01:32:04.010Z,53.30
2023-04-10T01:34:54.734Z,53.17
2023-04-10T01:37:34.608Z,53.27
2023-04-10T01:40:06.983Z,53.62
2023-04-10T01:42:42.663Z,53.19
2023-04-10T01:45:17.417Z,53.53
2023-04-10T01:47:44.470Z,53.51
2023-04-10T01:50:12.234Z,53.47
2023-04-10T01:52:40.162Z,53.23
2023-04-10T01:55:08.885Z,53.26
2023-04-10T01:57:38.720Z,53.46
2023-04-10T02:00:07.402Z,53.29
2023-04-10T02:02:34.954Z,53.29
2023-04-10T02:05:02.002Z,53.64
2023-04-10T02:07:38.420Z,53.68
2023-04-10T02:10:19.792Z,53.39
2023-04-10T02:13:00.037Z,53.20
2023-04-10T02:15:30.442Z,53.48
2023-04-10T02:17:59.936Z,53.59
2023-04-10T02:20:27.133Z,53.49
2023-04-10T02:22:54.237Z,53.51
2023-04-10T02:25:21.074Z,53.60
2023-04-10T02:27:47.872Z,53.55
2023-04-10T02:30:14.698Z,53.43
2023-04-10T02:32:41.963Z,53.63
2023-04-10T02:35:09.061Z,53.57
2023-04-10T02:37:37.007Z,53.48
2023-04-10T02:40:04.109Z,53.48
2023-04-10T02:42:30.927Z,53.57
2023-04-10T02:44:57.714Z,53.67
2023-04-10T02:47:24.593Z,53.38
2023-04-10T02:49:51.419Z,53.58
2023-04-10T02:52:18.742Z,53.73
2023-04-10T02:54:46.256Z,53.54
2023-04-10T02:57:13.018Z,53.43
2023-04-10T02:59:39.943Z,53.84
2023-04-10T03:02:07.396Z,53.72
2023-04-10T03:04:34.734Z,53.69
2023-04-10T03:07:01.719Z,53.61
2023-04-10T03:09:28.548Z,53.70
2023-04-10T03:11:55.318Z,53.94
2023-04-10T03:14:22.093Z,53.87
2023-04-10T03:16:48.948Z,53.73
2023-04-10T03:19:16.214Z,54.01
2023-04-10T03:21:43.010Z,53.91
2023-04-10T03:24:09.762Z,53.97
2023-04-10T03:26:36.532Z,54.07
2023-04-10T03:29:03.636Z,53.98
2023-04-10T03:31:30.954Z,53.96
2023-04-10T03:33:58.228Z,53.97
2023-04-10T03:36:25.314Z,53.88
2023-04-10T03:38:52.778Z,53.88
2023-04-10T03:41:19.599Z,53.79
2023-04-10T03:43:46.390Z,53.74
2023-04-10T03:46:13.147Z,53.83
2023-04-10T03:48:41.122Z,54.10
2023-04-10T03:51:08.069Z,53.87
2023-04-10T03:53:36.196Z,53.79
2023-04-10T03:56:03.717Z,53.91
2023-04-10T03:58:30.476Z,54.21
2023-04-10T04:00:57.407Z,53.92
2023-04-10T04:03:24.379Z,54.09
2023-04-10T04:05:52.192Z,53.83
2023-04-10T04:08:19.028Z,53.82
2023-04-10T04:10:45.795Z,53.88
2023-04-10T04:13:12.598Z,53.94
2023-04-10T04:15:39.505Z,54.00
2023-04-10T04:18:06.511Z,53.97
2023-04-10T04:20:33.399Z,53.81
2023-04-10T04:23:00.217Z,53.92
2023-04-10T04:25:27.139Z,53.92
2023-04-10T04:27:53.906Z,53.88
2023-04-10T04:30:20.827Z,54.03
2023-04-10T04:32:47.610Z,54.05
2023-04-10T04:35:14.393Z,54.11
2023-04-10T04:37:41.164Z,54.27
2023-04-10T04:40:08.423Z,54.16
2023-04-10T04:42:35.766Z,54.10
2023-04-10T04:45:02.575Z,54.48
2023-04-10T04:47:29.373Z,54.35
2023-04-10T04:49:56.188Z,54.41
2023-04-10T04:52:23.669Z,54.63
2023-04-10T04:54:50.502Z,54.72
2023-04-10T04:57:17.304Z,54.67
2023-04-10T04:59:44.089Z,54.91
2023-04-10T05:02:10.909Z,54.77
2023-04-10T05:04:37.767Z,54.89
2023-04-10T05:07:04.545Z,55.13
2023-04-10T05:09:31.322Z,55.22
2023-04-10T05:16:24.040Z,55.88
2023-04-10T05:18:51.037Z,56.13
2023-04-10T05:21:17.812Z,56.19
2023-04-10T05:23:44.563Z,56.18
2023-04-10T05:26:11.331Z,55.89
2023-04-10T05:28:38.069Z,55.80
2023-04-10T05:31:05.198Z,56.00
2023-04-10T05:33:32.029Z,55.81
2023-04-10T05:35:58.806Z,55.80
2023-04-10T05:38:25.632Z,55.80
2023-04-10T05:40:52.422Z,56.09
2023-04-10T05:43:19.162Z,55.70
2023-04-10T05:45:45.931Z,55.85
2023-04-10T05:48:12.707Z,55.89
2023-04-10T05:50:39.504Z,55.54
2023-04-10T05:53:06.305Z,55.44
2023-04-10T05:55:33.052Z,55.13
2023-04-10T05:57:59.854Z,55.01
2023-04-10T06:00:27.366Z,54.68
2023-04-10T06:02:54.242Z,54.00
2023-04-10T06:05:21.542Z,53.40
2023-04-10T06:07:48.399Z,53.00
2023-04-10T06:10:15.480Z,52.82
2023-04-10T06:12:42.270Z,52.40
2023-04-10T06:15:09.416Z,51.82
2023-04-10T06:17:43.574Z,51.13
2023-04-10T06:20:10.834Z,50.68
2023-04-10T06:22:37.638Z,50.24
2023-04-10T06:25:05.364Z,49.95
2023-04-10T06:27:34.487Z,50.03
2023-04-10T06:30:01.554Z,49.92
2023-04-10T06:32:28.322Z,49.87
2023-04-10T06:34:55.818Z,49.85
2023-04-10T06:37:31.152Z,49.83
2023-04-10T06:40:07.321Z,49.65
2023-04-10T06:42:34.464Z,49.38
2023-04-10T06:45:01.476Z,49.26
2023-04-10T06:47:28.813Z,48.91
2023-04-10T06:49:55.902Z,48.99
2023-04-10T06:52:22.719Z,48.88
2023-04-10T06:54:49.515Z,48.83
2023-04-10T06:57:16.905Z,48.67
2023-04-10T06:59:43.685Z,48.39
2023-04-10T07:02:10.499Z,48.08
2023-04-10T07:04:37.528Z,48.45
2023-04-10T07:07:05.268Z,48.43
2023-04-10T07:09:32.075Z,48.38
2023-04-10T07:11:58.900Z,47.70
2023-04-10T07:14:25.743Z,47.09
2023-04-10T07:16:53.951Z,46.98
2023-04-10T07:19:21.079Z,46.93
2023-04-10T07:21:50.448Z,46.22
2023-04-10T07:24:18.069Z,46.13
2023-04-10T07:26:46.118Z,45.96
2023-04-10T07:29:13.995Z,45.54
2023-04-10T07:31:40.843Z,45.29
2023-04-10T07:34:08.041Z,45.08
2023-04-10T07:36:34.934Z,44.91
2023-04-10T07:39:01.722Z,44.48
2023-04-10T07:41:28.503Z,43.72
2023-04-10T07:43:55.429Z,43.50
2023-04-10T07:46:22.379Z,43.23
2023-04-10T07:48:49.733Z,43.28
2023-04-10T07:51:16.543Z,42.58
2023-04-10T07:53:43.424Z,42.39
2023-04-10T07:56:19.321Z,41.89
2023-04-10T07:58:46.641Z,41.03
2023-04-10T08:01:14.419Z,41.42
2023-04-10T08:03:43.622Z,41.36
2023-04-10T08:06:11.740Z,40.93
2023-04-10T08:08:40.664Z,41.20
2023-04-10T08:11:29.712Z,41.44
2023-04-10T08:14:01.676Z,41.42
2023-04-10T08:16:34.559Z,41.61
2023-04-10T08:19:02.219Z,41.58
2023-04-10T08:21:31.542Z,41.69
2023-04-10T08:24:02.148Z,42.00
2023-04-10T08:26:29.424Z,42.22
2023-04-10T08:28:59.685Z,42.37
2023-04-10T08:31:28.681Z,42.69
2023-04-10T08:33:56.558Z,42.57
2023-04-10T08:36:23.696Z,42.83
2023-04-10T08:38:50.571Z,42.74
2023-04-10T08:41:19.728Z,42.74
2023-04-10T08:43:47.190Z,42.73
2023-04-10T08:46:14.990Z,43.43
2023-04-10T08:48:47.583Z,43.25
2023-04-10T08:51:20.483Z,43.64
2023-04-10T08:53:58.431Z,43.66
2023-04-10T08:56:26.048Z,43.67
2023-04-10T08:58:53.205Z,43.83
2023-04-10T09:01:21.767Z,43.19
2023-04-10T09:03:49.096Z,43.09
2023-04-10T09:06:16.113Z,43.39
2023-04-10T09:08:42.889Z,43.78
2023-04-10T09:11:10.782Z,44.02
2023-04-10T09:13:42.596Z,43.10
2023-04-10T09:16:11.202Z,43.24
2023-04-10T09:18:46.095Z,43.03
2023-04-10T09:21:17.119Z,42.97
2023-04-10T09:23:45.798Z,42.76
2023-04-10T09:26:32.364Z,42.89
2023-04-10T09:29:05.241Z,43.15
2023-04-10T09:31:40.164Z,43.03
2023-04-10T09:34:16.443Z,43.06
2023-04-10T09:36:58.499Z,42.51
2023-04-10T09:39:40.940Z,42.59
2023-04-10T09:42:07.740Z,42.19
2023-04-10T09:44:37.572Z,41.96
2023-04-10T09:47:18.958Z,42.13
2023-04-10T09:50:00.739Z,41.94
2023-04-10T09:52:33.666Z,42.10
2023-04-10T09:55:07.581Z,41.39
2023-04-10T09:57:35.718Z,41.39
2023-04-10T10:00:06.874Z,41.02
2023-04-10T10:02:39.768Z,40.69
2023-04-10T10:05:07.450Z,40.72
2023-04-10T10:07:34.994Z,40.02
2023-04-10T10:10:03.391Z,39.86
2023-04-10T10:12:54.959Z,39.84
2023-04-10T10:15:23.156Z,40.28
2023-04-10T10:18:21.372Z,40.07
2023-04-10T10:20:50.671Z,39.38
2023-04-10T10:23:19.507Z,39.35
2023-04-10T10:25:46.750Z,39.08
2023-04-10T10:28:14.773Z,39.37
2023-04-10T10:30:43.029Z,39.67
2023-04-10T10:33:13.350Z,39.36
2023-04-10T10:35:41.201Z,38.74
2023-04-10T10:38:08.519Z,38.64
2023-04-10T10:41:14.396Z,39.17
2023-04-10T10:44:08.395Z,39.01
2023-04-10T10:46:42.684Z,38.78
2023-04-10T10:49:09.415Z,38.67
2023-04-10T10:51:50.868Z,38.67
2023-04-10T10:54:35.405Z,38.59
2023-04-10T10:57:06.397Z,38.42
2023-04-10T10:59:48.419Z,38.52
2023-04-10T11:02:19.937Z,38.21
2023-04-10T11:04:49.795Z,38.12
2023-04-10T11:07:17.268Z,37.72
2023-04-10T11:09:50.955Z,37.49
2023-04-10T11:12:24.315Z,37.63
2023-04-10T11:15:04.495Z,38.01
2023-04-10T11:17:54.267Z,37.88
2023-04-10T11:20:25.676Z,37.65
2023-04-10T11:23:10.495Z,38.02
2023-04-10T11:26:07.223Z,38.13
2023-04-10T11:28:37.347Z,37.48
2023-04-10T11:31:23.086Z,37.76
2023-04-10T11:33:56.472Z,37.87
2023-04-10T11:36:23.932Z,37.68
2023-04-10T11:39:02.724Z,37.06
2023-04-10T11:41:34.981Z,37.22
2023-04-10T11:44:06.268Z,36.87
2023-04-10T11:46:37.942Z,37.04
2023-04-10T11:49:06.603Z,36.73
2023-04-10T11:51:34.041Z,36.46
2023-04-10T11:54:12.321Z,36.71
2023-04-10T11:56:41.734Z,35.88
2023-04-10T11:59:19.498Z,36.08
2023-04-10T12:01:47.293Z,36.46
2023-04-10T12:04:18.362Z,36.05
2023-04-10T12:06:51.457Z,35.61
2023-04-10T12:09:20.626Z,35.44
2023-04-10T12:11:56.737Z,35.50
2023-04-10T12:14:28.988Z,35.71
2023-04-10T12:16:56.884Z,34.79
2023-04-10T12:19:23.782Z,34.97
2023-04-10T12:21:51.056Z,35.01
2023-04-10T12:24:44.923Z,35.45
2023-04-10T12:27:22.488Z,35.35
2023-04-10T12:29:53.146Z,34.73
2023-04-10T12:32:20.696Z,34.34
2023-04-10T12:34:58.417Z,34.64
2023-04-10T12:37:26.592Z,34.43
2023-04-10T12:39:53.799Z,34.49
2023-04-10T12:42:22.931Z,34.14
2023-04-10T12:45:01.058Z,33.65
2023-04-10T12:47:29.555Z,33.72
2023-04-10T12:50:11.725Z,33.92
2023-04-10T12:52:42.376Z,33.63
2023-04-10T12:55:11.196Z,33.38
2023-04-10T12:57:38.167Z,33.21
2023-04-10T13:00:07.221Z,33.12
2023-04-10T13:02:34.241Z,32.45
2023-04-10T13:05:01.812Z,32.42
2023-04-10T13:07:28.635Z,32.43
2023-04-10T13:09:55.395Z,32.44
2023-04-10T13:12:22.992Z,32.38
2023-04-10T13:14:49.781Z,32.02
2023-04-10T13:17:16.569Z,31.97
2023-04-10T13:19:43.339Z,32.15
2023-04-10T13:22:10.091Z,31.83
2023-04-10T13:24:37.007Z,32.26
2023-04-10T13:27:03.957Z,32.18
2023-04-10T13:29:30.753Z,31.75
2023-04-10T13:31:57.886Z,31.68
2023-04-10T13:34:24.683Z,31.32
2023-04-10T13:36:51.463Z,30.90
2023-04-10T13:39:18.645Z,30.87
2023-04-10T13:41:45.498Z,30.90
2023-04-10T13:44:12.322Z,30.79
2023-04-10T13:46:39.149Z,31.02
2023-04-10T13:49:06.003Z,31.21
2023-04-10T13:51:32.786Z,31.14
2023-04-10T13:53:59.553Z,31.20
2023-04-10T13:56:26.406Z,31.12
2023-04-10T13:58:53.393Z,31.30
2023-04-10T14:01:20.488Z,31.04
2023-04-10T14:03:47.485Z,31.41
2023-04-10T14:06:14.349Z,31.31
2023-04-10T14:08:41.203Z,31.47
2023-04-10T14:11:08.005Z,31.01
2023-04-10T14:13:34.759Z,31.22
2023-04-10T14:16:01.707Z,31.09
2023-04-10T14:23:52.472Z,30.88
2023-04-10T14:26:19.258Z,30.79
2023-04-10T14:28:46.042Z,30.75
2023-04-10T14:31:12.845Z,31.20
2023-04-10T14:33:39.643Z,31.37
2023-04-10T14:36:07.100Z,31.00
2023-04-10T14:38:33.909Z,30.93
2023-04-10T14:41:00.836Z,31.21
2023-04-10T14:43:27.626Z,31.25
2023-04-10T14:45:54.400Z,31.00
2023-04-10T14:48:21.347Z,31.27
2023-04-10T14:50:49.337Z,30.85
2023-04-10T14:53:16.702Z,30.91
2023-04-10T14:55:43.502Z,30.92
2023-04-10T14:58:11.182Z,30.93
2023-04-10T15:00:38.004Z,31.11
2023-04-10T15:03:06.102Z,30.99
2023-04-10T15:05:33.115Z,31.01
2023-04-10T15:07:59.939Z,31.07
2023-04-10T15:10:29.094Z,31.31
2023-04-10T15:12:55.917Z,31.47
2023-04-10T15:15:22.676Z,31.30
2023-04-10T15:17:49.569Z,31.69
2023-04-10T15:20:16.504Z,31.55
2023-04-10T15:22:44.900Z,31.68
2023-04-10T15:25:15.057Z,31.33
2023-04-10T15:27:41.921Z,31.72
2023-04-10T15:30:09.105Z,31.54
2023-04-10T15:32:38.212Z,31.59
2023-04-10T15:35:05.933Z,31.42
2023-04-10T15:37:35.307Z,31.06
2023-04-10T15:40:06.317Z,31.53
2023-04-10T15:42:35.286Z,31.49
2023-04-10T15:45:03.113Z,31.45
2023-04-10T15:47:30.676Z,31.39
2023-04-10T15:49:57.676Z,31.50
2023-04-10T15:52:24.467Z,31.66
2023-04-10T15:54:51.292Z,31.07
2023-04-10T15:57:18.090Z,30.84
2023-04-10T15:59:44.863Z,30.71
2023-04-10T16:02:11.755Z,30.86
2023-04-10T16:04:38.761Z,30.99
2023-04-10T16:07:05.563Z,30.98
2023-04-10T16:09:32.308Z,30.96
2023-04-10T16:11:59.088Z,30.86
2023-04-10T16:14:25.888Z,30.85
2023-04-10T16:16:52.687Z,30.64
2023-04-10T16:19:19.479Z,30.72
2023-04-10T16:21:46.353Z,30.78
2023-04-10T16:24:13.224Z,30.73
2023-04-10T16:26:40.099Z,30.64
2023-04-10T16:29:06.838Z,30.66
2023-04-10T16:31:33.729Z,30.61
2023-04-10T16:34:01.260Z,30.83
2023-04-10T16:36:28.017Z,30.75
2023-04-10T16:38:54.938Z,30.97
2023-04-10T16:41:22.701Z,30.97
2023-04-10T16:43:49.502Z,30.92
2023-04-10T16:46:16.314Z,30.86
2023-04-10T16:48:43.076Z,30.62
2023-04-10T16:51:16.499Z,30.89
2023-04-10T16:53:43.344Z,30.93
2023-04-10T16:56:10.571Z,30.80
2023-04-10T16:58:38.025Z,31.26
2023-04-10T17:01:19.284Z,31.20
2023-04-10T17:03:48.103Z,31.26
2023-04-10T17:06:15.855Z,31.40
2023-04-10T17:08:42.930Z,31.10
2023-04-10T17:11:10.239Z,31.25
2023-04-10T17:13:37.153Z,30.93
2023-04-10T17:16:05.441Z,31.31
2023-04-10T17:18:32.685Z,31.00
2023-04-10T17:20:59.694Z,31.18
2023-04-10T17:23:26.550Z,31.54
2023-04-10T17:25:53.352Z,31.58
2023-04-10T17:28:20.407Z,31.34
2023-04-10T17:30:48.357Z,31.55
2023-04-10T17:33:15.348Z,31.55
2023-04-10T17:35:42.506Z,31.68
2023-04-10T17:38:09.465Z,31.88
2023-04-10T17:40:37.450Z,31.71
2023-04-10T17:43:04.482Z,32.02
2023-04-10T17:45:31.268Z,31.98
2023-04-10T17:47:58.150Z,31.71
2023-04-10T17:50:25.881Z,31.81
2023-04-10T17:52:53.149Z,31.91
2023-04-10T17:55:21.078Z,32.09
2023-04-10T17:57:48.964Z,32.06
2023-04-10T18:00:20.856Z,32.28
2023-04-10T18:02:55.208Z,32.45
2023-04-10T18:05:24.694Z,33.03
2023-04-10T18:07:51.444Z,32.73
2023-04-10T18:10:18.306Z,32.84
2023-04-10T18:12:45.157Z,32.65
2023-04-10T18:15:14.153Z,32.88
2023-04-10T18:17:41.269Z,32.48
2023-04-10T18:20:08.646Z,33.04
2023-04-10T18:22:35.402Z,33.02
2023-04-10T18:25:02.255Z,33.13
2023-04-10T18:27:34.676Z,33.21
2023-04-10T18:30:02.038Z,33.07
2023-04-10T18:32:28.956Z,33.21
2023-04-10T18:34:55.809Z,33.40
2023-04-10T18:37:22.592Z,33.12
2023-04-10T18:39:49.371Z,33.14
2023-04-10T18:42:16.288Z,33.25
2023-04-10T18:44:43.069Z,33.33
2023-04-10T18:47:11.053Z,33.39
2023-04-10T18:49:38.002Z,33.43
2023-04-10T18:52:04.834Z,33.43
2023-04-10T18:54:31.627Z,33.59
2023-04-10T18:56:58.463Z,33.57
2023-04-10T18:59:26.780Z,33.37
2023-04-10T19:01:53.947Z,33.60
2023-04-10T19:04:20.890Z,33.69
2023-04-10T19:06:47.904Z,33.72
2023-04-10T19:09:14.909Z,33.74
2023-04-10T19:11:42.616Z,33.61
2023-04-10T19:14:09.409Z,33.83
2023-04-10T19:16:36.762Z,33.56
2023-04-10T19:19:03.532Z,33.89
2023-04-10T19:21:31.537Z,33.84
2023-04-10T19:23:58.385Z,33.99
2023-04-10T19:26:25.492Z,33.92
2023-04-10T19:28:52.269Z,34.07
2023-04-10T19:31:19.531Z,34.05
2023-04-10T19:33:46.421Z,34.13
2023-04-10T19:36:15.450Z,34.10
2023-04-10T19:38:44.468Z,34.06
2023-04-10T19:41:15.660Z,34.15
2023-04-10T19:43:43.088Z,34.05
2023-04-10T19:46:17.906Z,34.35
2023-04-10T19:48:45.159Z,34.51
2023-04-10T19:51:12.012Z,34.52
2023-04-10T19:53:38.958Z,34.51
2023-04-10T19:56:06.465Z,34.40
2023-04-10T19:58:40.644Z,34.47
2023-04-10T20:01:09.270Z,34.51
2023-04-10T20:03:37.041Z,34.34
2023-04-10T20:06:07.496Z,34.69
2023-04-10T20:08:35.678Z,34.59
2023-04-10T20:11:06.032Z,34.66
2023-04-10T20:13:36.008Z,34.68
2023-04-10T20:16:03.062Z,34.87
2023-04-10T20:18:32.015Z,34.67
2023-04-10T20:20:58.843Z,34.82
2023-04-10T20:23:25.593Z,34.87
2023-04-10T20:25:52.343Z,34.75
2023-04-10T20:28:20.068Z,34.81
2023-04-10T20:30:46.901Z,34.79
2023-04-10T20:33:13.679Z,34.78
2023-04-10T20:35:40.516Z,34.95
2023-04-10T20:38:07.396Z,35.04
2023-04-10T20:40:34.770Z,34.83
2023-04-10T20:43:01.596Z,34.92
2023-04-10T20:45:28.347Z,35.06
2023-04-10T20:47:59.360Z,35.07
2023-04-10T20:50:26.208Z,35.18
2023-04-10T20:52:52.984Z,35.10
2023-04-10T20:55:19.800Z,34.97
2023-04-10T20:57:46.550Z,35.01
2023-04-10T21:00:13.840Z,35.17
2023-04-10T21:02:40.735Z,35.01
2023-04-10T21:05:08.132Z,35.22
2023-04-10T21:07:34.967Z,35.21
2023-04-10T21:10:01.743Z,35.34
2023-04-10T21:12:28.556Z,35.35
2023-04-10T21:14:55.339Z,35.37
2023-04-10T21:17:22.616Z,35.19
2023-04-10T21:19:49.432Z,35.37
2023-04-10T21:22:16.190Z,35.58
2023-04-10T21:24:42.939Z,35.46
2023-04-10T21:27:09.764Z,35.38
2023-04-10T21:29:36.541Z,35.37
2023-04-10T21:32:03.359Z,35.30
2023-04-10T21:34:30.496Z,35.34
2023-04-10T21:36:57.343Z,35.11
2023-04-10T21:39:24.117Z,35.32
2023-04-10T21:41:50.869Z,35.07
2023-04-10T21:44:18.172Z,35.22
2023-04-10T21:46:44.996Z,35.27
2023-04-10T21:49:11.759Z,35.19
2023-04-10T21:51:40.639Z,35.19
2023-04-10T21:54:07.454Z,35.19
2023-04-10T21:56:35.528Z,35.03
2023-04-10T21:59:02.403Z,35.09
2023-04-10T22:01:29.217Z,34.70
2023-04-10T22:03:57.002Z,34.98
2023-04-10T22:06:23.952Z,34.88
2023-04-10T22:08:50.728Z,34.85
2023-04-10T22:11:17.599Z,35.06
2023-04-10T22:13:44.370Z,34.64
2023-04-10T22:16:11.194Z,34.80
2023-04-10T22:18:38.053Z,35.39
2023-04-10T22:21:04.977Z,35.83
2023-04-10T22:23:32.106Z,36.15
2023-04-10T22:26:02.035Z,36.83
2023-04-10T22:28:29.054Z,37.22
2023-04-10T22:30:55.838Z,37.74
2023-04-10T22:33:22.740Z,38.38
2023-04-10T22:35:53.590Z,38.90
2023-04-10T22:38:20.419Z,39.34
2023-04-10T22:40:47.168Z,39.62
2023-04-10T22:43:13.925Z,39.84
2023-04-10T22:45:42.180Z,39.91
2023-04-10T22:48:09.078Z,40.14
2023-04-10T22:50:36.389Z,40.19
2023-04-10T22:53:03.161Z,40.57
2023-04-10T22:55:30.014Z,40.61
2023-04-10T22:57:56.831Z,40.82
2023-04-10T23:00:24.609Z,41.27
2023-04-10T23:02:51.504Z,41.37
2023-04-10T23:05:18.314Z,41.99
2023-04-10T23:07:45.096Z,42.24
2023-04-10T23:10:11.880Z,42.68
2023-04-10T23:12:38.661Z,43.07
2023-04-10T23:15:07.823Z,43.57
2023-04-10T23:17:34.645Z,43.76
2023-04-10T23:20:01.411Z,44.37
2023-04-10T23:22:29.498Z,44.63
2023-04-10T23:24:57.263Z,45.08
2023-04-10T23:27:24.465Z,45.39
2023-04-10T23:29:58.725Z,45.94
2023-04-10T23:32:25.502Z,46.21
2023-04-10T23:34:52.250Z,46.59
2023-04-10T23:37:19.156Z,46.71
2023-04-10T23:39:46.007Z,47.18
2023-04-10T23:42:12.769Z,47.12
2023-04-10T23:44:40.417Z,47.33
2023-04-10T23:47:07.262Z,47.53
2023-04-10T23:49:35.195Z,47.72
2023-04-10T23:52:01.988Z,47.83
2023-04-10T23:54:29.683Z,48.06
2023-04-10T23:56:56.426Z,48.18
2023-04-10T23:59:23.229Z,48.26
